Placerville, Colorado
Current Conditions -  °F | °C
As of 5:15 PM on Monday 20 Oct 2014 (Local Time) from KTEX Reporting Station
Scattered Clouds Scattered Clouds  
Wind Chill: 55°   Ceiling: Unl
Heat Index: 55°   Visibility: 10mi
Dew Point: 34°   Wind: 14mph
Humidity: 46%   Direction: 260°W
Pressure: 30.3"   Gusts: NA
Location:  38.02°N, 108.05°W
Report Text: KTEX 202315Z AUTO 26012KT 10SM SCT090 13/01 A3030 RMK AO2 T01260012
Loading
Personal Weather Stations






























Interactive Weather Map
Tropical Storm Tracking
New forecast layout! Learn more

10-Day Weather Forecast

Advertisements
Track Severe Weather on mobile